Domov               UVHVVR             MKGP            O straneh              
ZDRAVSTVENO VARSTVO RASTLIN
  MREŽA AGROMET. POSTAJ
 ► PROGNOSTIČNA OBVESTILA
AGROMETEOROLOŠKI PODATKI -
ARSO
OBVLADOVANJE TVEGANJ ZARADI
NEUGODNIH VREMENSKIH RAZMER
  ► NARAVNE NESREČE
  ► SUŠA/MOČA
  ► NAMAKANJE
  ► ŽLED (gozdarstvo)
KARTOGRAFSKI PRIKAZI
SPLETNE POVEZAVE
PROJEKTI IN PUBLIKACIJE

AGROMETEOROLOŠKA MREŽA: VREMENSKE POSTAJE IN FENOLOŠKA OPAZOVANJA

Pregled podatkov za lokacijo Selnica ob Dravi, meteorološka postaja 49160

Pregled senzorjev na lokaciji

ID Ime Zadnja
vrednost
Datum
zadnje
spremembe
Tip
senzorja
3696 Temperatura 2 m ( °C) 16,87 °C 17.8.2017 07:00 50YA
3697 Relativna vlaga 2 m (% RH) 96,14 % RH 17.8.2017 07:00 50YA
3698 Omočenost lista (U) 10 U 17.8.2017 07:00 A730WET
3699 Sončno sevanje (W/m2) 64,03 W/m2 17.8.2017 07:00 Pyranometer SP-Lite
3700 Temperatura tal ( °C) 19,81 °C 17.8.2017 07:00 99TG411E
3701 Hitrost vetra (km/h) 4,84 km/h 17.8.2017 07:00 566.2S-176 (200km/h)
3702 Smer vetra (°) 236,68 ° 17.8.2017 07:00 566.2S-130
3703 Padavine 0.2 mm (mm) 0 mm 17.8.2017 07:00 Rain-O-Matic

Pregled podatkov zadnjih 24 ur

Zap.
št.
Datum in čas Selnica ob Dravi
Hitrost
vetra
Omočenost
lista
Padavine
0.2
mm
Relativna
vlaga
2
m
Smer
vetra
Sončno
sevanje
Temperatura
2
m
Temperatura
tal
0 17.8.2017 06:00 4,84 10 0 96,14 236,68 64,03 16,87 19,81
1 17.8.2017 05:30 4,27 10 0 97,34 220,21 14,86 16,5 19,82
2 17.8.2017 05:00 4,41 10 0 97,72 218,18 1,4 16,4 19,85
3 17.8.2017 04:30 4,85 10 0 97,4 261,63 0,4 16,57 19,88
4 17.8.2017 04:00 5,53 10 0 98,2 219,63 0,37 16,46 19,91
5 17.8.2017 03:30 3,99 10 0 97,79 238,59 0,37 16,31 19,92
6 17.8.2017 03:00 3,84 10 0 97,73 188,82 0,37 16,51 19,96
7 17.8.2017 02:30 2,27 10 0 97,1 245,94 0,4 16,58 20
8 17.8.2017 02:00 5,08 10 0 97,1 270,96 0,37 16,59 20,03
9 17.8.2017 01:30 5,52 10 0 96,86 202,91 0,37 16,46 20,05
10 17.8.2017 01:00 6,17 10 0 96,98 195,46 0,43 16,5 20,07
11 17.8.2017 00:30 5,44 10 0 96,95 182,12 0,37 16,43 20,1
12 17.8.2017 00:00 4,6 10 0 97,01 206,05 16,55 20,13
13 16.8.2017 23:30 4,15 10 0 97,04 248,49 16,59 20,16
14 16.8.2017 23:00 4,67 10 0 96,23 198,99 16,86 20,18
15 16.8.2017 22:30 5,72 10 0 96,31 208,86 17,11 20,21
16 16.8.2017 22:00 4,32 10 0 97,49 222,24 17,26 20,26
17 16.8.2017 21:30 4,65 10 0 97,07 229,52 17,48 20,28
18 16.8.2017 21:00 4,83 10 0 96,59 196,19 17,63 20,3
19 16.8.2017 20:30 5,12 10 0 94,99 188,9 17,87 20,31
20 16.8.2017 20:00 5,59 10 0 96,28 179,91 17,8 20,34
21 16.8.2017 19:30 3,81 10 0,2 96,13 155,45 17,84 20,34
22 16.8.2017 19:00 4,11 10 0,2 93,98 177,92 1,37 18,1 20,37
23 16.8.2017 18:30 8,67 10 0,2 90,72 198,8 3,02 18,55 20,34
24 16.8.2017 18:00 7,68 10 0,2 87,35 274,98 6,93 18,81 20,34
25 16.8.2017 17:30 12,04 9 0 82,06 277,52 14,47 19,77 20,34
26 16.8.2017 17:00 7,47 10 4,2 90,79 289,96 27,68 21,55 20,39
27 16.8.2017 16:30 0,3 1 1 70,82 246,98 46,97 25,22 20,42
28 16.8.2017 16:00 0,29 0 0 65,75 173,78 87,62 26,03 20,4
29 16.8.2017 15:30 3,86 0 0 55,49 167,73 130,22 26,91 20,37
30 16.8.2017 15:00 5,26 0 0 49,09 27,92 314,73 28,35 20,4
31 16.8.2017 14:30 4,38 0 0 55,2 73,97 361,43 27,19 20,25
32 16.8.2017 14:00 4,63 0 0 55,45 34,59 134,58 26,74 20,2
33 16.8.2017 13:30 5,14 0 0 52,43 56,2 331,7 28,11 20,22
34 16.8.2017 13:00 6,07 0 0 52,12 50,33 716,41 28,72 20,2
35 16.8.2017 12:30 6,69 0 0 53,82 94,64 723,74 28,36 20,13
36 16.8.2017 12:00 4,48 0 0 52,21 56,64 740,61 28,58 20,08
37 16.8.2017 11:30 3,94 0 0 52,19 214,95 677,2 28,17 20,01
38 16.8.2017 11:00 3,63 0 0 52,8 144,01 613,69 28,02 19,97
39 16.8.2017 10:30 4,43 0 0 52,98 163,35 673,17 27,85 19,94
40 16.8.2017 10:00 3,04 0 0 56,25 131,21 579,2 26,99 19,89
41 16.8.2017 09:30 4,04 0 0 57,84 223,14 554,51 26 19,85
42 16.8.2017 09:00 4,13 0 0 62,06 166,61 498,18 24,84 19,77
43 16.8.2017 08:30 4,79 0 0 68,85 291,25 424,23 22,74 19,69
44 16.8.2017 08:00 5,56 0 0 74,13 307,92 383,52 20,94 19,64
© 2011 Ministrstvo za kmetijstvo, gozdarstvo in prehrano. Vse pravice pridržane.